MEM weather

Memphis International Airport
Memphis, Tennessee, United States

Public forecast

Using degrees Fahrenheit for public forecast. Weather courtesy of forecast.io.

METAR (pilot weather report)

Retrieved 2019/04/25 11:54 UTC (10 minutes ago):

KMEM 251154Z 15011G22KT 9SM FEW031 SCT095 OVC160 19/19 A2971 RMK AO2 PK WND 11027/1125 WSHFT 1114 RAB1055E41 SLP057 P0004 60004 70004 T01940189 10206 20189 58020 $

TAF (pilot weather forecast)

Retrieved 2019/04/25 12:24 UTC (0 seconds ago):

TAF KMEM 251121Z 2512/2618 19011KT P6SM VCSH OVC070 FM251300 17012G18KT P6SM VCTS OVC035CB TEMPO 2514/2516 2SM TSRA OVC020CB FM251600 20015G22KT P6SM VCSH OVC040 FM251900 25015G22KT P6SM VCTS OVC030CB FM260100 32012KT P6SM VCSH OVC035 FM260300 31009KT P6SM OVC035